Time;durP1;ratioP1;P1;durP2;ratioP2;P2;SDS_P1;SDS_P2;PMS_P1;PMS_P2;Temp;Humidity;BMP_temperature;BMP_pressure;BME280_temperature;BME280_humidity;BME280_pressure;Samples;Min_cycle;Max_cycle;Signal;HPM_P1;HPM_P2
2023/04/30 00:01:50;;;;;;;;;;;;;;;;;;5048341;28;19925;-57
2023/04/30 00:04:16;;;;;;;;;;;;;;;;;;5049273;28;19920;-55
2023/04/30 00:06:42;;;;;;;;;;;;;;;;;;5050524;28;19925;-56
2023/04/30 00:09:08;;;;;;;;;;;;;;;;;;5049701;28;19931;-57
2023/04/30 00:11:34;;;;;;;;;;;;;;;;;;5050391;28;19925;-57
2023/04/30 00:14:00;;;;;;;;;;;;;;;;;;5050326;28;19994;-56
2023/04/30 00:16:26;;;;;;;;;;;;;;;;;;5049818;28;19925;-56
2023/04/30 00:18:52;;;;;;;;;;;;;;;;;;5050838;28;19925;-58
2023/04/30 00:21:18;;;;;;;;;;;;;;;;;;5053989;28;20379;-58
2023/04/30 00:23:44;;;;;;;;;;;;;;;;;;5053075;28;19935;-58
2023/04/30 00:26:10;;;;;;;;;;;;;;;;;;5053628;28;19929;-56
2023/04/30 00:28:36;;;;;;;;;;;;;;;;;;5053881;28;19973;-57
2023/04/30 00:31:05;;;;;;;;;;;;;;;;;;5053306;28;19920;-56
2023/04/30 00:33:31;;;;;;;;;;;;;;;;;;5053716;28;19924;-57
2023/04/30 00:35:57;;;;;;;;;;;;;;;;;;5053798;28;19924;-57
2023/04/30 00:38:23;;;;;;;;;;;;;;;;;;5053019;28;20282;-58
2023/04/30 00:40:49;;;;;;;;;;;;;;;;;;5053637;28;19964;-57
2023/04/30 00:43:15;;;;;;;;;;;;;;;;;;5052145;28;19998;-57
2023/04/30 00:45:41;;;;;;;;;;;;;;;;;;5053070;28;19925;-56
2023/04/30 00:48:07;;;;;;;;;;;;;;;;;;5053433;28;19990;-56
2023/04/30 00:50:33;;;;;;;;;;;;;;;;;;5053513;28;19959;-58
2023/04/30 00:52:59;;;;;;;;;;;;;;;;;;5052868;28;19947;-57
2023/04/30 00:55:25;;;;;;;;;;;;;;;;;;5053170;28;20013;-57
2023/04/30 00:57:51;;;;;;;;;;;;;;;;;;5053438;28;20427;-56
2023/04/30 01:00:17;;;;;;;;;;;;;;;;;;5051434;28;19979;-54
2023/04/30 01:02:43;;;;;;;;;;;;;;;;;;5053225;28;19972;-55
2023/04/30 01:05:09;;;;;;;;;;;;;;;;;;5053223;28;19964;-57
2023/04/30 01:07:35;;;;;;;;;;;;;;;;;;5051360;28;19925;-56
2023/04/30 01:10:01;;;;;;;;;;;;;;;;;;5052804;28;19990;-58
2023/04/30 01:12:27;;;;;;;;;;;;;;;;;;5053065;28;20264;-57
2023/04/30 01:14:53;;;;;;;;;;;;;;;;;;5052638;28;19932;-57
2023/04/30 01:17:19;;;;;;;;;;;;;;;;;;5052497;28;20280;-57
2023/04/30 01:19:45;;;;;;;;;;;;;;;;;;5051415;28;19925;-58
2023/04/30 01:22:11;;;;;;;;;;;;;;;;;;5052912;28;19947;-58
2023/04/30 01:24:37;;;;;;;;;;;;;;;;;;5052024;28;19935;-57
2023/04/30 01:27:03;;;;;;;;;;;;;;;;;;5052807;28;20375;-58
2023/04/30 01:29:29;;;;;;;;;;;;;;;;;;5052837;28;19921;-56
2023/04/30 01:31:55;;;;;;;;;;;;;;;;;;5050758;28;19925;-56
2023/04/30 01:34:21;;;;;;;;;;;;;;;;;;5052471;28;19929;-55
2023/04/30 01:36:47;;;;;;;;;;;;;;;;;;5052828;28;19921;-56
2023/04/30 01:39:13;;;;;;;;;;;;;;;;;;5052172;28;19971;-56
2023/04/30 01:41:39;;;;;;;;;;;;;;;;;;5052612;28;19920;-56
2023/04/30 01:44:05;;;;;;;;;;;;;;;;;;5052454;28;19981;-57
2023/04/30 01:46:31;;;;;;;;;;;;;;;;;;5051916;28;19935;-58
2023/04/30 01:48:56;;;;;;;;;;;;;;;;;;5052289;28;19924;-58
2023/04/30 01:51:22;;;;;;;;;;;;;;;;;;5052237;28;19932;-56
2023/04/30 01:53:48;;;;;;;;;;;;;;;;;;5051788;28;19925;-56
2023/04/30 01:56:14;;;;;;;;;;;;;;;;;;5052139;28;19924;-57
2023/04/30 01:58:40;;;;;;;;;;;;;;;;;;5052255;28;20012;-55
2023/04/30 02:01:06;;;;;;;;;;;;;;;;;;5050070;28;19947;-56
2023/04/30 02:03:32;;;;;;;;;;;;;;;;;;5052102;28;20015;-56
2023/04/30 02:05:58;;;;;;;;;;;;;;;;;;5052171;28;19971;-56
2023/04/30 02:08:24;;;;;;;;;;;;;;;;;;5051468;28;19928;-56
2023/04/30 02:10:50;;;;;;;;;;;;;;;;;;5052041;28;19970;-54
2023/04/30 02:13:16;;;;;;;;;;;;;;;;;;5052056;28;19972;-57
2023/04/30 02:15:42;;;;;;;;;;;;;;;;;;5051055;28;19921;-56
2023/04/30 02:18:08;;;;;;;;;;;;;;;;;;5051891;28;19932;-57
2023/04/30 02:20:34;;;;;;;;;;;;;;;;;;5051624;28;19990;-57
2023/04/30 02:23:00;;;;;;;;;;;;;;;;;;5051219;28;19936;-57
2023/04/30 02:25:26;;;;;;;;;;;;;;;;;;5051601;28;19947;-57
2023/04/30 02:27:52;;;;;;;;;;;;;;;;;;5051627;28;19925;-56
2023/04/30 02:30:19;;;;;;;;;;;;;;;;;;5051185;28;19920;-56
2023/04/30 02:32:45;;;;;;;;;;;;;;;;;;5051401;28;20018;-56
2023/04/30 02:35:11;;;;;;;;;;;;;;;;;;5051474;28;20006;-56
2023/04/30 02:37:37;;;;;;;;;;;;;;;;;;5050936;28;19921;-56
2023/04/30 02:40:04;;;;;;;;;;;;;;;;;;5051196;28;19920;-56
2023/04/30 02:42:30;;;;;;;;;;;;;;;;;;5049610;28;20024;-56
2023/04/30 02:44:56;;;;;;;;;;;;;;;;;;5050937;28;19924;-56
2023/04/30 02:47:22;;;;;;;;;;;;;;;;;;5051467;28;19924;-55
2023/04/30 02:49:48;;;;;;;;;;;;;;;;;;5050927;28;19930;-57
2023/04/30 02:52:14;;;;;;;;;;;;;;;;;;5050647;28;19921;-57
2023/04/30 02:54:41;;;;;;;;;;;;;;;;;;5051276;28;19986;-57
2023/04/30 02:57:07;;;;;;;;;;;;;;;;;;5051325;28;19924;-55
2023/04/30 02:59:33;;;;;;;;;;;;;;;;;;5050693;28;19932;-56
2023/04/30 03:01:59;;;;;;;;;;;;;;;;;;5050718;28;19960;-56
2023/04/30 03:04:25;;;;;;;;;;;;;;;;;;5051070;28;19947;-57
2023/04/30 03:06:51;;;;;;;;;;;;;;;;;;5050494;28;19921;-57
2023/04/30 03:09:17;;;;;;;;;;;;;;;;;;5050694;28;19975;-57
2023/04/30 03:11:43;;;;;;;;;;;;;;;;;;5051030;28;19970;-57
2023/04/30 03:14:09;;;;;;;;;;;;;;;;;;5050483;28;19933;-57
2023/04/30 03:16:35;;;;;;;;;;;;;;;;;;5049610;28;20020;-56
2023/04/30 03:19:01;;;;;;;;;;;;;;;;;;5050534;28;19925;-57
2023/04/30 03:21:27;;;;;;;;;;;;;;;;;;5050196;28;19993;-57
2023/04/30 03:23:53;;;;;;;;;;;;;;;;;;5050264;28;20011;-57
2023/04/30 03:26:19;;;;;;;;;;;;;;;;;;5050763;28;19925;-56
2023/04/30 03:28:45;;;;;;;;;;;;;;;;;;5049854;28;19924;-56
2023/04/30 03:31:11;;;;;;;;;;;;;;;;;;5050589;28;19925;-55
2023/04/30 03:33:37;;;;;;;;;;;;;;;;;;5050589;28;19928;-55
2023/04/30 03:36:03;;;;;;;;;;;;;;;;;;5050306;28;19927;-55
2023/04/30 03:38:29;;;;;;;;;;;;;;;;;;5050763;28;20051;-55
2023/04/30 03:40:55;;;;;;;;;;;;;;;;;;5050714;28;19925;-55
2023/04/30 03:43:21;;;;;;;;;;;;;;;;;;5050266;28;20422;-57
2023/04/30 03:45:47;;;;;;;;;;;;;;;;;;5049535;28;20042;-56
2023/04/30 03:48:13;;;;;;;;;;;;;;;;;;5050514;28;19925;-57
2023/04/30 03:50:39;;;;;;;;;;;;;;;;;;5049796;28;19925;-56
2023/04/30 03:53:05;;;;;;;;;;;;;;;;;;5050593;28;19924;-56
2023/04/30 03:55:31;;;;;;;;;;;;;;;;;;5053789;28;19960;-56
2023/04/30 03:57:57;;;;;;;;;;;;;;;;;;5054090;28;19921;-55
2023/04/30 04:00:23;;;;;;;;;;;;;;;;;;5054563;28;19920;-56
2023/04/30 04:02:49;;;;;;;;;;;;;;;;;;5054228;28;20047;-56
2023/04/30 04:05:15;;;;;;;;;;;;;;;;;;5053851;28;20506;-56
2023/04/30 04:07:41;;;;;;;;;;;;;;;;;;5053031;28;20011;-56
2023/04/30 04:10:07;;;;;;;;;;;;;;;;;;5054088;28;19943;-55
2023/04/30 04:12:33;;;;;;;;;;;;;;;;;;5053975;28;19920;-56
2023/04/30 04:14:59;;;;;;;;;;;;;;;;;;5053872;28;19931;-54
2023/04/30 04:17:25;;;;;;;;;;;;;;;;;;5054040;28;19947;-57
2023/04/30 04:19:51;;;;;;;;;;;;;;;;;;5053967;28;20013;-56
2023/04/30 04:22:17;;;;;;;;;;;;;;;;;;5053217;28;19947;-57
2023/04/30 04:24:43;;;;;;;;;;;;;;;;;;5053713;28;19925;-57
2023/04/30 04:27:09;;;;;;;;;;;;;;;;;;5053897;28;19927;-55
2023/04/30 04:29:35;;;;;;;;;;;;;;;;;;5053448;28;20418;-56
2023/04/30 04:32:03;;;;;;;;;;;;;;;;;;5052744;28;20425;-56
2023/04/30 04:34:29;;;;;;;;;;;;;;;;;;5053995;28;19932;-54
2023/04/30 04:36:55;;;;;;;;;;;;;;;;;;5053275;28;19925;-55
2023/04/30 04:39:21;;;;;;;;;;;;;;;;;;5053773;28;19947;-56
2023/04/30 04:41:46;;;;;;;;;;;;;;;;;;5053552;28;19921;-55
2023/04/30 04:44:12;;;;;;;;;;;;;;;;;;5053256;28;19942;-56
2023/04/30 04:46:41;;;;;;;;;;;;;;;;;;5053678;28;19928;-55
2023/04/30 04:49:06;;;;;;;;;;;;;;;;;;5053085;28;19960;-57
2023/04/30 04:51:32;;;;;;;;;;;;;;;;;;5052865;28;19967;-57
2023/04/30 04:53:58;;;;;;;;;;;;;;;;;;5053463;28;19924;-57
2023/04/30 04:56:24;;;;;;;;;;;;;;;;;;5053445;28;20031;-56
2023/04/30 04:58:50;;;;;;;;;;;;;;;;;;5052773;28;19943;-55
2023/04/30 05:01:16;;;;;;;;;;;;;;;;;;5051738;28;19982;-57
2023/04/30 05:03:42;;;;;;;;;;;;;;;;;;5051728;28;19960;-56
2023/04/30 05:06:08;;;;;;;;;;;;;;;;;;5052351;28;19979;-55
2023/04/30 05:08:35;;;;;;;;;;;;;;;;;;5053109;28;20012;-52
2023/04/30 05:11:01;;;;;;;;;;;;;;;;;;5051895;28;19924;-56
2023/04/30 05:13:27;;;;;;;;;;;;;;;;;;5052385;28;19974;-55
2023/04/30 05:15:53;;;;;;;;;;;;;;;;;;5053143;28;20388;-55
2023/04/30 05:18:19;;;;;;;;;;;;;;;;;;5052478;28;20016;-57
2023/04/30 05:20:45;;;;;;;;;;;;;;;;;;5052115;28;20016;-57
2023/04/30 05:23:11;;;;;;;;;;;;;;;;;;5051439;28;19931;-57
2023/04/30 05:25:37;;;;;;;;;;;;;;;;;;5052455;28;19928;-57
2023/04/30 05:28:03;;;;;;;;;;;;;;;;;;5052152;28;19920;-56
2023/04/30 05:30:29;;;;;;;;;;;;;;;;;;5052841;28;20379;-56
2023/04/30 05:32:55;;;;;;;;;;;;;;;;;;5051185;28;19931;-56
2023/04/30 05:35:21;;;;;;;;;;;;;;;;;;5052214;28;19931;-56
2023/04/30 05:37:47;;;;;;;;;;;;;;;;;;5052656;28;20360;-57
2023/04/30 05:40:13;;;;;;;;;;;;;;;;;;5052491;28;20549;-57
2023/04/30 05:42:39;;;;;;;;;;;;;;;;;;5050309;28;19964;-56
2023/04/30 05:45:05;;;;;;;;;;;;;;;;;;5052524;28;20002;-57
2023/04/30 05:47:31;;;;;;;;;;;;;;;;;;5051962;28;19931;-58
2023/04/30 05:49:57;;;;;;;;;;;;;;;;;;5051870;28;20030;-58
2023/04/30 05:52:23;;;;;;;;;;;;;;;;;;5051085;28;20030;-58
2023/04/30 05:54:49;;;;;;;;;;;;;;;;;;5052222;28;19924;-56
2023/04/30 05:57:15;;;;;;;;;;;;;;;;;;5051672;28;19963;-56
2023/04/30 05:59:41;;;;;;;;;;;;;;;;;;5051871;28;19924;-56
2023/04/30 06:02:07;;;;;;;;;;;;;;;;;;5052145;28;19925;-56
2023/04/30 06:04:33;;;;;;;;;;;;;;;;;;5051677;28;19920;-57
2023/04/30 06:06:59;;;;;;;;;;;;;;;;;;5052183;28;19944;-57
2023/04/30 06:09:25;;;;;;;;;;;;;;;;;;5051620;28;19932;-54
2023/04/30 06:11:51;;;;;;;;;;;;;;;;;;5050161;28;19925;-56
2023/04/30 06:14:17;;;;;;;;;;;;;;;;;;5051885;28;20375;-58
2023/04/30 06:16:43;;;;;;;;;;;;;;;;;;5051192;28;20003;-58
2023/04/30 06:19:09;;;;;;;;;;;;;;;;;;5051294;28;20341;-58
2023/04/30 06:21:35;;;;;;;;;;;;;;;;;;5050109;28;19963;-58
2023/04/30 06:24:01;;;;;;;;;;;;;;;;;;5050852;28;19979;-58
2023/04/30 06:26:27;;;;;;;;;;;;;;;;;;5049377;28;20347;-56
2023/04/30 06:28:53;;;;;;;;;;;;;;;;;;5050101;28;19932;-56
2023/04/30 06:31:20;;;;;;;;;;;;;;;;;;5050028;28;20387;-55
2023/04/30 06:33:46;;;;;;;;;;;;;;;;;;5049355;28;19968;-56
2023/04/30 06:36:12;;;;;;;;;;;;;;;;;;5050136;28;20390;-56
2023/04/30 06:38:37;;;;;;;;;;;;;;;;;;5050262;28;20456;-55
2023/04/30 06:41:03;;;;;;;;;;;;;;;;;;5049560;28;20259;-57
2023/04/30 06:43:29;;;;;;;;;;;;;;;;;;5050248;28;19925;-55
2023/04/30 06:45:55;;;;;;;;;;;;;;;;;;5050041;28;19995;-56
2023/04/30 06:48:22;;;;;;;;;;;;;;;;;;5049442;28;19947;-57
2023/04/30 06:50:47;;;;;;;;;;;;;;;;;;5049881;28;20303;-57
2023/04/30 06:53:13;;;;;;;;;;;;;;;;;;5049761;28;19928;-57
2023/04/30 06:55:39;;;;;;;;;;;;;;;;;;5049312;28;19924;-57
2023/04/30 06:58:05;;;;;;;;;;;;;;;;;;5049599;28;19929;-58
2023/04/30 07:00:31;;;;;;;;;;;;;;;;;;5048567;28;20493;-57
2023/04/30 07:03:01;;;;;;;;;;;;;;;;;;5049249;28;19929;-58
2023/04/30 07:05:27;;;;;;;;;;;;;;;;;;5048324;28;19931;-58
2023/04/30 07:07:53;;;;;;;;;;;;;;;;;;5049631;28;19921;-56
2023/04/30 07:10:19;;;;;;;;;;;;;;;;;;5049370;28;19921;-55
2023/04/30 07:12:44;;;;;;;;;;;;;;;;;;5049459;28;19971;-57
2023/04/30 07:15:10;;;;;;;;;;;;;;;;;;5049639;28;20437;-56
2023/04/30 07:17:37;;;;;;;;;;;;;;;;;;5049479;28;19978;-58
2023/04/30 07:20:03;;;;;;;;;;;;;;;;;;5049460;28;19924;-58
2023/04/30 07:22:29;;;;;;;;;;;;;;;;;;5049789;28;19924;-58
2023/04/30 07:24:55;;;;;;;;;;;;;;;;;;5048863;28;19955;-57
2023/04/30 07:27:21;;;;;;;;;;;;;;;;;;5049232;28;19928;-57
2023/04/30 07:29:47;;;;;;;;;;;;;;;;;;5051800;28;19920;-58
2023/04/30 07:32:14;;;;;;;;;;;;;;;;;;5052004;28;19975;-58
2023/04/30 07:34:40;;;;;;;;;;;;;;;;;;5053044;28;20398;-56
2023/04/30 07:37:06;;;;;;;;;;;;;;;;;;5053485;28;19983;-57
2023/04/30 07:39:32;;;;;;;;;;;;;;;;;;5053699;28;19921;-58
2023/04/30 07:41:58;;;;;;;;;;;;;;;;;;5052990;28;19944;-55
2023/04/30 07:44:24;;;;;;;;;;;;;;;;;;5053439;28;19924;-57
2023/04/30 07:46:50;;;;;;;;;;;;;;;;;;5053514;28;19986;-57
2023/04/30 07:49:16;;;;;;;;;;;;;;;;;;5052754;28;20407;-58
2023/04/30 07:51:42;;;;;;;;;;;;;;;;;;5051875;28;19983;-58
2023/04/30 07:54:08;;;;;;;;;;;;;;;;;;5053432;28;19931;-58
2023/04/30 07:56:34;;;;;;;;;;;;;;;;;;5052332;28;20515;-57
2023/04/30 07:59:00;;;;;;;;;;;;;;;;;;5053091;28;20027;-57
2023/04/30 08:01:26;;;;;;;;;;;;;;;;;;5053076;28;20074;-57
2023/04/30 08:03:52;;;;;;;;;;;;;;;;;;5052454;28;19928;-56
2023/04/30 08:06:18;;;;;;;;;;;;;;;;;;5053386;28;19944;-57
2023/04/30 08:08:44;;;;;;;;;;;;;;;;;;5052595;28;20397;-55
2023/04/30 08:11:10;;;;;;;;;;;;;;;;;;5052330;28;20248;-57
2023/04/30 08:13:36;;;;;;;;;;;;;;;;;;5053086;28;19950;-54
2023/04/30 08:16:02;;;;;;;;;;;;;;;;;;5052654;28;19924;-58
2023/04/30 08:18:28;;;;;;;;;;;;;;;;;;5052062;28;20302;-58
2023/04/30 08:20:54;;;;;;;;;;;;;;;;;;5052329;28;19931;-58
2023/04/30 08:23:20;;;;;;;;;;;;;;;;;;5052485;28;19929;-58
2023/04/30 08:25:46;;;;;;;;;;;;;;;;;;5051680;28;19932;-57
2023/04/30 08:28:12;;;;;;;;;;;;;;;;;;5052572;28;19928;-54
2023/04/30 08:30:38;;;;;;;;;;;;;;;;;;5052434;28;20330;-55
2023/04/30 08:33:04;;;;;;;;;;;;;;;;;;5051969;28;20279;-56
2023/04/30 08:35:30;;;;;;;;;;;;;;;;;;5052695;28;20011;-58
2023/04/30 08:37:56;;;;;;;;;;;;;;;;;;5052370;28;20442;-57
2023/04/30 08:40:22;;;;;;;;;;;;;;;;;;5051147;28;19921;-57
2023/04/30 08:42:48;;;;;;;;;;;;;;;;;;5052400;28;20399;-57
2023/04/30 08:45:15;;;;;;;;;;;;;;;;;;5052415;28;20572;-57
2023/04/30 08:47:41;;;;;;;;;;;;;;;;;;5051984;28;19931;-57
2023/04/30 08:50:07;;;;;;;;;;;;;;;;;;5052407;28;19970;-58
2023/04/30 08:52:35;;;;;;;;;;;;;;;;;;5052123;28;19929;-58
2023/04/30 08:55:03;;;;;;;;;;;;;;;;;;5051278;28;20165;-58
2023/04/30 08:57:29;;;;;;;;;;;;;;;;;;5052019;28;19925;-58
2023/04/30 08:59:55;;;;;;;;;;;;;;;;;;5051754;28;19970;-57
2023/04/30 09:02:21;;;;;;;;;;;;;;;;;;5051354;28;20429;-58
2023/04/30 09:04:47;;;;;;;;;;;;;;;;;;5052145;28;19921;-57
2023/04/30 09:07:13;;;;;;;;;;;;;;;;;;5051859;28;19924;-56
2023/04/30 09:09:39;;;;;;;;;;;;;;;;;;5051144;28;20294;-57
2023/04/30 09:12:05;;;;;;;;;;;;;;;;;;5051724;28;19925;-57
2023/04/30 09:14:32;;;;;;;;;;;;;;;;;;5051667;28;19935;-57
2023/04/30 09:16:58;;;;;;;;;;;;;;;;;;5051326;28;20175;-57
2023/04/30 09:19:24;;;;;;;;;;;;;;;;;;5051709;28;20019;-58
2023/04/30 09:21:50;;;;;;;;;;;;;;;;;;5051552;28;20070;-57
2023/04/30 09:24:16;;;;;;;;;;;;;;;;;;5050892;28;19925;-57
2023/04/30 09:26:42;;;;;;;;;;;;;;;;;;5051466;28;19920;-58
2023/04/30 09:29:09;;;;;;;;;;;;;;;;;;5051200;28;20391;-58
2023/04/30 09:31:35;;;;;;;;;;;;;;;;;;5050901;28;19932;-57
2023/04/30 09:34:01;;;;;;;;;;;;;;;;;;5051250;28;19928;-58
2023/04/30 09:36:27;;;;;;;;;;;;;;;;;;5051421;28;20390;-58
2023/04/30 09:38:53;;;;;;;;;;;;;;;;;;5049306;28;19920;-58
2023/04/30 09:41:19;;;;;;;;;;;;;;;;;;5051366;28;19928;-57
2023/04/30 09:43:45;;;;;;;;;;;;;;;;;;5051292;28;20299;-56
2023/04/30 09:46:11;;;;;;;;;;;;;;;;;;5049627;28;19924;-56
2023/04/30 09:48:37;;;;;;;;;;;;;;;;;;5049750;28;19925;-56
2023/04/30 09:51:02;;;;;;;;;;;;;;;;;;5050377;28;20019;-57
2023/04/30 09:53:28;;;;;;;;;;;;;;;;;;5049838;28;19931;-58
2023/04/30 09:55:54;;;;;;;;;;;;;;;;;;5051007;28;19921;-57
2023/04/30 09:58:21;;;;;;;;;;;;;;;;;;5051084;28;19925;-57
2023/04/30 10:00:48;;;;;;;;;;;;;;;;;;5050064;28;19925;-57
2023/04/30 10:03:14;;;;;;;;;;;;;;;;;;5049410;28;20280;-58
2023/04/30 10:05:40;;;;;;;;;;;;;;;;;;5050817;28;19990;-57
2023/04/30 10:08:06;;;;;;;;;;;;;;;;;;5049888;28;19929;-56
2023/04/30 10:10:32;;;;;;;;;;;;;;;;;;5050823;28;19927;-58
2023/04/30 10:12:58;;;;;;;;;;;;;;;;;;5050429;28;19921;-58
2023/04/30 10:15:24;;;;;;;;;;;;;;;;;;5049993;28;20294;-58
2023/04/30 10:17:50;;;;;;;;;;;;;;;;;;5050573;28;20379;-58
2023/04/30 10:20:16;;;;;;;;;;;;;;;;;;5050606;28;20215;-58
2023/04/30 10:22:43;;;;;;;;;;;;;;;;;;5049592;28;19921;-57
2023/04/30 10:25:12;;;;;;;;;;;;;;;;;;5050596;28;20399;-57
2023/04/30 10:27:38;;;;;;;;;;;;;;;;;;5050284;28;19965;-58
2023/04/30 10:30:04;;;;;;;;;;;;;;;;;;5050000;28;20023;-58
2023/04/30 10:32:30;;;;;;;;;;;;;;;;;;5050431;28;19920;-58
2023/04/30 10:34:56;;;;;;;;;;;;;;;;;;5048874;28;20023;-57
2023/04/30 10:37:22;;;;;;;;;;;;;;;;;;5050079;28;20004;-58
2023/04/30 10:39:48;;;;;;;;;;;;;;;;;;5048449;28;19921;-56
2023/04/30 10:42:14;;;;;;;;;;;;;;;;;;5049554;28;19931;-57
2023/04/30 10:44:40;;;;;;;;;;;;;;;;;;5048945;28;19925;-57
2023/04/30 10:47:06;;;;;;;;;;;;;;;;;;5049557;28;20116;-57
2023/04/30 10:49:32;;;;;;;;;;;;;;;;;;5049867;28;19925;-58
2023/04/30 10:51:58;;;;;;;;;;;;;;;;;;5049873;28;19932;-58
2023/04/30 10:54:24;;;;;;;;;;;;;;;;;;5049352;28;19968;-58
2023/04/30 10:56:50;;;;;;;;;;;;;;;;;;5049946;28;19921;-57
2023/04/30 10:59:16;;;;;;;;;;;;;;;;;;5049887;28;19926;-58
2023/04/30 11:01:42;;;;;;;;;;;;;;;;;;5049116;28;20410;-58
2023/04/30 11:04:08;;;;;;;;;;;;;;;;;;5049571;28;19966;-58
2023/04/30 11:06:33;;;;;;;;;;;;;;;;;;5049831;28;19925;-56
2023/04/30 11:08:59;;;;;;;;;;;;;;;;;;5047940;28;20310;-56
2023/04/30 11:11:25;;;;;;;;;;;;;;;;;;5048341;28;19932;-57
2023/04/30 11:13:51;;;;;;;;;;;;;;;;;;5049640;28;19932;-58
2023/04/30 11:16:18;;;;;;;;;;;;;;;;;;5048910;28;19921;-58
2023/04/30 11:18:44;;;;;;;;;;;;;;;;;;5049549;28;20091;-58
2023/04/30 11:21:10;;;;;;;;;;;;;;;;;;5049386;28;20027;-57
2023/04/30 11:23:36;;;;;;;;;;;;;;;;;;5048764;28;20426;-58
2023/04/30 11:26:05;;;;;;;;;;;;;;;;;;5048561;28;21548;-58
2023/04/30 11:28:31;;;;;;;;;;;;;;;;;;5049397;28;20020;-58
2023/04/30 11:30:57;;;;;;;;;;;;;;;;;;5049147;28;19985;-59
2023/04/30 11:33:22;;;;;;;;;;;;;;;;;;5049400;28;19924;-58
2023/04/30 11:35:51;;;;;;;;;;;;;;;;;;5049441;28;19928;-58
2023/04/30 11:38:17;;;;;;;;;;;;;;;;;;5048902;28;19931;-59
2023/04/30 11:40:43;;;;;;;;;;;;;;;;;;5048913;28;20379;-58
2023/04/30 11:43:09;;;;;;;;;;;;;;;;;;5049361;28;19928;-58
2023/04/30 11:45:35;;;;;;;;;;;;;;;;;;5048960;28;19994;-58
2023/04/30 11:48:01;;;;;;;;;;;;;;;;;;5049162;28;19925;-58
2023/04/30 11:50:30;;;;;;;;;;;;;;;;;;5049760;28;19920;-58
2023/04/30 11:52:56;;;;;;;;;;;;;;;;;;5048437;28;19925;-59
2023/04/30 11:55:22;;;;;;;;;;;;;;;;;;5049309;28;20310;-58
2023/04/30 11:57:48;;;;;;;;;;;;;;;;;;5031055;28;19920;-57
2023/04/30 12:00:14;;;;;;;;;;;;;;;;;;5048632;28;19931;-58
2023/04/30 12:02:40;;;;;;;;;;;;;;;;;;5047559;28;20333;-58
2023/04/30 12:05:05;;;;;;;;;;;;;;;;;;5049337;28;19924;-59
2023/04/30 12:07:32;;;;;;;;;;;;;;;;;;5048490;28;20401;-59
2023/04/30 12:09:57;;;;;;;;;;;;;;;;;;5049300;28;20399;-59
2023/04/30 12:12:23;;;;;;;;;;;;;;;;;;5048881;28;19924;-59
2023/04/30 12:14:50;;;;;;;;;;;;;;;;;;5049175;28;20020;-59
2023/04/30 12:17:16;;;;;;;;;;;;;;;;;;5052694;28;19928;-59
2023/04/30 12:19:42;;;;;;;;;;;;;;;;;;5052795;28;20268;-58
2023/04/30 12:22:08;;;;;;;;;;;;;;;;;;5052373;28;19931;-59
2023/04/30 12:24:34;;;;;;;;;;;;;;;;;;5052314;28;19925;-58
2023/04/30 12:27:01;;;;;;;;;;;;;;;;;;5052518;28;20379;-59
2023/04/30 12:29:26;;;;;;;;;;;;;;;;;;5052181;28;19974;-59
2023/04/30 12:31:52;;;;;;;;;;;;;;;;;;5052568;28;20387;-59
2023/04/30 12:34:18;;;;;;;;;;;;;;;;;;5052567;28;19936;-59
2023/04/30 12:36:44;;;;;;;;;;;;;;;;;;5052041;28;19921;-59
2023/04/30 12:39:10;;;;;;;;;;;;;;;;;;5052399;28;20007;-59
2023/04/30 12:41:37;;;;;;;;;;;;;;;;;;5052332;28;19925;-59
2023/04/30 12:44:03;;;;;;;;;;;;;;;;;;5051706;28;19925;-59
2023/04/30 12:46:31;;;;;;;;;;;;;;;;;;5052401;28;20032;-58
2023/04/30 12:48:58;;;;;;;;;;;;;;;;;;5052109;28;19921;-59
2023/04/30 12:51:24;;;;;;;;;;;;;;;;;;5051395;28;19928;-58
2023/04/30 12:53:50;;;;;;;;;;;;;;;;;;5052072;28;19929;-59
2023/04/30 12:56:16;;;;;;;;;;;;;;;;;;5051819;28;19932;-59
2023/04/30 12:58:44;;;;;;;;;;;;;;;;;;5051415;28;19924;-59
2023/04/30 13:01:10;;;;;;;;;;;;;;;;;;5052038;28;20022;-59
2023/04/30 13:03:36;;;;;;;;;;;;;;;;;;5052233;28;19929;-59
2023/04/30 13:06:03;;;;;;;;;;;;;;;;;;5051617;28;19924;-59
2023/04/30 13:08:29;;;;;;;;;;;;;;;;;;5051508;28;19921;-60
2023/04/30 13:10:55;;;;;;;;;;;;;;;;;;5051695;28;19985;-59
2023/04/30 13:13:21;;;;;;;;;;;;;;;;;;5051520;28;19925;-59
2023/04/30 13:15:47;;;;;;;;;;;;;;;;;;5051486;28;19927;-60
2023/04/30 13:18:14;;;;;;;;;;;;;;;;;;5050100;28;20084;-59
2023/04/30 13:20:40;;;;;;;;;;;;;;;;;;5051086;28;20240;-59
2023/04/30 13:23:06;;;;;;;;;;;;;;;;;;5051487;28;19928;-59
2023/04/30 13:25:32;;;;;;;;;;;;;;;;;;5050074;28;20018;-59
2023/04/30 13:27:58;;;;;;;;;;;;;;;;;;5050542;28;19979;-59
2023/04/30 13:30:24;;;;;;;;;;;;;;;;;;5051445;28;19930;-59
2023/04/30 13:32:51;;;;;;;;;;;;;;;;;;5051372;28;19924;-60
2023/04/30 13:35:17;;;;;;;;;;;;;;;;;;5050834;28;19968;-59
2023/04/30 13:37:43;;;;;;;;;;;;;;;;;;5051514;28;20010;-60
2023/04/30 13:40:09;;;;;;;;;;;;;;;;;;5051190;28;20027;-60
2023/04/30 13:42:35;;;;;;;;;;;;;;;;;;5050947;28;20015;-60
2023/04/30 13:45:01;;;;;;;;;;;;;;;;;;5049827;28;19924;-60
2023/04/30 13:47:26;;;;;;;;;;;;;;;;;;5051256;28;20064;-60
2023/04/30 13:49:52;;;;;;;;;;;;;;;;;;5050625;28;20216;-60
2023/04/30 13:52:18;;;;;;;;;;;;;;;;;;5051428;28;19925;-59
2023/04/30 13:54:44;;;;;;;;;;;;;;;;;;5051060;28;19933;-60
2023/04/30 13:57:10;;;;;;;;;;;;;;;;;;5050878;28;20437;-60
2023/04/30 13:59:37;;;;;;;;;;;;;;;;;;5050747;28;19978;-60
2023/04/30 14:02:03;;;;;;;;;;;;;;;;;;5050779;28;19921;-59
2023/04/30 14:04:30;;;;;;;;;;;;;;;;;;5050892;28;19924;-60
2023/04/30 14:06:56;;;;;;;;;;;;;;;;;;5049146;28;20286;-60
2023/04/30 14:09:22;;;;;;;;;;;;;;;;;;5050556;28;19947;-60
2023/04/30 14:11:47;;;;;;;;;;;;;;;;;;5050627;28;19925;-60
2023/04/30 14:14:13;;;;;;;;;;;;;;;;;;5050060;28;19948;-60
2023/04/30 14:16:39;;;;;;;;;;;;;;;;;;5050616;28;19921;-60
2023/04/30 14:19:05;;;;;;;;;;;;;;;;;;5050473;28;19924;-60
2023/04/30 14:21:33;;;;;;;;;;;;;;;;;;5050200;28;19928;-60
2023/04/30 14:23:58;;;;;;;;;;;;;;;;;;5050150;28;19925;-60
2023/04/30 14:26:24;;;;;;;;;;;;;;;;;;5050299;28;19994;-60
2023/04/30 14:28:50;;;;;;;;;;;;;;;;;;5049693;28;19924;-60
2023/04/30 14:31:16;;;;;;;;;;;;;;;;;;5048761;28;19925;-60
2023/04/30 14:33:43;;;;;;;;;;;;;;;;;;5049914;28;20387;-60
2023/04/30 14:36:09;;;;;;;;;;;;;;;;;;5049519;28;19924;-60
2023/04/30 14:38:34;;;;;;;;;;;;;;;;;;5049481;28;19931;-60
2023/04/30 14:41:00;;;;;;;;;;;;;;;;;;5050295;28;20364;-59
2023/04/30 14:43:26;;;;;;;;;;;;;;;;;;5049667;28;19929;-60
2023/04/30 14:45:52;;;;;;;;;;;;;;;;;;5049955;28;19963;-60
2023/04/30 14:48:18;;;;;;;;;;;;;;;;;;5049892;28;19975;-60
2023/04/30 14:50:44;;;;;;;;;;;;;;;;;;5049434;28;20023;-60
2023/04/30 14:53:11;;;;;;;;;;;;;;;;;;5049846;28;19931;-59
2023/04/30 14:55:37;;;;;;;;;;;;;;;;;;5050042;28;19926;-60
2023/04/30 14:58:03;;;;;;;;;;;;;;;;;;5049351;28;19975;-59
2023/04/30 15:00:29;;;;;;;;;;;;;;;;;;5049758;28;19925;-60
2023/04/30 15:02:55;;;;;;;;;;;;;;;;;;5050154;28;19928;-59
2023/04/30 15:05:21;;;;;;;;;;;;;;;;;;5049309;28;20347;-60
2023/04/30 15:07:47;;;;;;;;;;;;;;;;;;5049591;28;19928;-60
2023/04/30 15:10:13;;;;;;;;;;;;;;;;;;5049761;28;20330;-60
2023/04/30 15:12:39;;;;;;;;;;;;;;;;;;5049190;28;19921;-60
2023/04/30 15:15:05;;;;;;;;;;;;;;;;;;5049670;28;19963;-60
2023/04/30 15:17:33;;;;;;;;;;;;;;;;;;5050004;28;20394;-60
2023/04/30 15:20:01;;;;;;;;;;;;;;;;;;5049168;28;20394;-60
2023/04/30 15:22:26;;;;;;;;;;;;;;;;;;5049658;28;19925;-59
2023/04/30 15:24:52;;;;;;;;;;;;;;;;;;5049152;28;20043;-60
2023/04/30 15:27:18;;;;;;;;;;;;;;;;;;5048417;28;20318;-59
2023/04/30 15:29:45;;;;;;;;;;;;;;;;;;5049478;28;19921;-60
2023/04/30 15:32:11;;;;;;;;;;;;;;;;;;5049494;28;20307;-60
2023/04/30 15:34:37;;;;;;;;;;;;;;;;;;5048889;28;19925;-59
2023/04/30 15:37:03;;;;;;;;;;;;;;;;;;5049385;28;19952;-60
2023/04/30 15:39:29;;;;;;;;;;;;;;;;;;5049179;28;20015;-60
2023/04/30 15:41:55;;;;;;;;;;;;;;;;;;5048675;28;19932;-60
2023/04/30 15:44:21;;;;;;;;;;;;;;;;;;5049313;28;19921;-59
2023/04/30 15:46:47;;;;;;;;;;;;;;;;;;5049355;28;20317;-60
2023/04/30 15:49:12;;;;;;;;;;;;;;;;;;5048945;28;20302;-59
2023/04/30 15:51:38;;;;;;;;;;;;;;;;;;5052917;28;20069;-59
2023/04/30 15:54:09;;;;;;;;;;;;;;;;;;5053413;28;19935;-58
2023/04/30 15:56:35;;;;;;;;;;;;;;;;;;5052942;28;20019;-59
2023/04/30 15:59:01;;;;;;;;;;;;;;;;;;5053414;28;20381;-59
2023/04/30 16:01:27;;;;;;;;;;;;;;;;;;5053369;28;19927;-59
2023/04/30 16:03:53;;;;;;;;;;;;;;;;;;5052737;28;19924;-59
2023/04/30 16:06:19;;;;;;;;;;;;;;;;;;5053003;28;19960;-59
2023/04/30 16:08:45;;;;;;;;;;;;;;;;;;5051885;28;19927;-59
2023/04/30 16:11:11;;;;;;;;;;;;;;;;;;5052112;28;20020;-58
2023/04/30 16:13:37;;;;;;;;;;;;;;;;;;5052903;28;20055;-59
2023/04/30 16:16:03;;;;;;;;;;;;;;;;;;5052705;28;19925;-59
2023/04/30 16:18:29;;;;;;;;;;;;;;;;;;5050871;28;19921;-59
2023/04/30 16:20:55;;;;;;;;;;;;;;;;;;5052573;28;19921;-59
2023/04/30 16:23:21;;;;;;;;;;;;;;;;;;5052583;28;20391;-59
2023/04/30 16:25:47;;;;;;;;;;;;;;;;;;5050751;28;19943;-59
2023/04/30 16:28:13;;;;;;;;;;;;;;;;;;5052575;28;19925;-58
2023/04/30 16:30:39;;;;;;;;;;;;;;;;;;5052401;28;19947;-59
2023/04/30 16:33:05;;;;;;;;;;;;;;;;;;5052062;28;20279;-58
2023/04/30 16:35:31;;;;;;;;;;;;;;;;;;5052877;28;19924;-59
2023/04/30 16:37:57;;;;;;;;;;;;;;;;;;5052506;28;20039;-59